Time;durP1;ratioP1;P1;durP2;ratioP2;P2;SDS_P1;SDS_P2;PMS_P1;PMS_P2;Temp;Humidity;BMP_temperature;BMP_pressure;BME280_temperature;BME280_humidity;BME280_pressure;Samples;Min_cycle;Max_cycle;Signal;HPM_P1;HPM_P2
2023/04/28 00:01:03;;;;;;;7.68;3.17;;;12.50;77.90;;;;;;4926399;29;20059;-96
2023/04/28 00:03:38;;;;;;;7.78;3.35;;;12.50;77.90;;;;;;4931417;29;20060;-96
2023/04/28 00:06:26;;;;;;;5.72;3.20;;;12.90;78.20;;;;;;4940421;29;20027;-96
2023/04/28 00:09:29;;;;;;;6.10;3.17;;;12.50;78.00;;;;;;4954875;28;20440;-96
2023/04/28 00:11:58;;;;;;;6.70;3.53;;;12.90;78.30;;;;;;4943453;29;20020;-95
2023/04/28 00:17:50;;;;;;;5.13;3.20;;;12.50;78.10;;;;;;4908459;29;20165;-94
2023/04/28 00:20:28;;;;;;;6.20;3.17;;;12.40;78.10;;;;;;4905092;29;20047;-95
2023/04/28 00:23:02;;;;;;;10.95;2.97;;;12.50;78.20;;;;;;4891444;29;20040;-96
2023/04/28 00:25:40;;;;;;;6.03;3.35;;;12.40;78.10;;;;;;4906109;29;20058;-96
2023/04/28 00:28:11;;;;;;;4.75;3.00;;;12.50;78.20;;;;;;4904992;29;20028;-95
2023/04/28 00:31:14;;;;;;;4.72;2.95;;;12.50;78.20;;;;;;4905322;29;20036;-96
2023/04/28 00:33:46;;;;;;;6.32;3.58;;;12.50;78.30;;;;;;4885121;29;20038;-96
2023/04/28 00:36:33;;;;;;;9.80;3.40;;;12.50;78.30;;;;;;4902831;29;20437;-96
2023/04/28 00:39:35;;;;;;;7.20;3.55;;;12.50;78.30;;;;;;4896664;29;20028;-95
2023/04/28 00:42:12;;;;;;;12.80;3.65;;;12.50;78.40;;;;;;4896934;29;20530;-95
2023/04/28 00:44:49;;;;;;;4.60;3.17;;;12.50;78.40;;;;;;4911028;29;20025;-96
2023/04/28 00:47:23;;;;;;;8.95;3.90;;;12.50;78.50;;;;;;4889030;29;20103;-94
2023/04/28 00:50:09;;;;;;;4.97;2.95;;;12.50;78.50;;;;;;4902741;29;20539;-95
2023/04/28 00:52:49;;;;;;;4.65;2.90;;;12.50;78.40;;;;;;4893046;29;20172;-95
2023/04/28 00:56:08;;;;;;;9.13;3.30;;;12.50;78.50;;;;;;4948347;28;20396;-96
2023/04/28 00:58:54;;;;;;;8.07;3.80;;;12.40;78.40;;;;;;4937902;29;20030;-94
2023/04/28 01:01:32;;;;;;;6.53;3.58;;;12.50;78.50;;;;;;4951058;29;20054;-94
2023/04/28 01:04:14;;;;;;;8.35;4.28;;;12.40;78.50;;;;;;4942667;28;20027;-95
2023/04/28 01:06:50;;;;;;;10.02;3.80;;;12.40;78.60;;;;;;4945636;29;20031;-95
2023/04/28 01:09:28;;;;;;;8.88;4.72;;;12.50;78.60;;;;;;4944173;29;20070;-96
2023/04/28 01:12:02;;;;;;;8.55;4.30;;;12.50;78.70;;;;;;4955666;28;20379;-96
2023/04/28 01:14:38;;;;;;;8.75;4.13;;;12.40;78.60;;;;;;4943947;29;20118;-94
2023/04/28 01:17:16;;;;;;;7.00;3.38;;;12.50;78.70;;;;;;4945074;29;20023;-95
2023/04/28 01:23:35;;;;;;;5.05;3.17;;;12.40;78.70;;;;;;4946643;29;20079;-96
2023/04/28 01:26:07;;;;;;;6.60;3.20;;;12.40;78.70;;;;;;4940126;29;20023;-95
2023/04/28 01:28:44;;;;;;;6.85;3.13;;;12.40;78.80;;;;;;4937044;29;20035;-95
2023/04/28 01:31:19;;;;;;;6.05;3.40;;;12.40;78.80;;;;;;4938555;29;20175;-96
2023/04/28 01:33:57;;;;;;;5.03;3.50;;;12.40;78.80;;;;;;4943246;29;20024;-96
2023/04/28 01:36:30;;;;;;;10.52;3.40;;;12.40;78.80;;;;;;4943890;29;20028;-95
2023/04/28 01:39:17;;;;;;;8.68;3.55;;;12.40;78.80;;;;;;4936897;29;20011;-96
2023/04/28 01:42:01;;;;;;;5.50;3.55;;;13.40;79.50;;;;;;4938855;29;20036;-95
2023/04/28 01:44:40;;;;;;;11.25;4.05;;;12.40;78.90;;;;;;4941666;29;20520;-95
2023/04/28 01:47:08;;;;;;;6.43;3.00;;;12.40;78.90;;;;;;4932410;29;20034;-95
2023/04/28 01:49:40;;;;;;;9.35;3.70;;;12.40;79.00;;;;;;4940619;29;20086;-95
2023/04/28 01:52:26;;;;;;;7.45;3.80;;;12.40;79.00;;;;;;4961219;28;20559;-96
2023/04/28 01:55:02;;;;;;;10.63;4.05;;;12.40;79.00;;;;;;4934499;29;20047;-95
2023/04/28 01:57:36;;;;;;;7.63;4.00;;;12.40;79.00;;;;;;4936207;29;20122;-96
2023/04/28 02:00:06;;;;;;;8.57;3.65;;;12.50;79.20;;;;;;4952840;28;20027;-96
2023/04/28 02:02:41;;;;;;;11.02;3.40;;;12.70;79.30;;;;;;4944137;29;20027;-94
2023/04/28 02:05:17;;;;;;;10.43;3.25;;;12.40;79.90;;;;;;4933401;29;20503;-95
2023/04/28 02:07:59;;;;;;;4.72;3.03;;;12.40;79.10;;;;;;4941444;29;20481;-96
2023/04/28 02:10:34;;;;;;;8.43;2.85;;;12.40;79.10;;;;;;4937477;29;20407;-95
2023/04/28 02:12:59;;;;;;;7.07;3.17;;;12.40;79.10;;;;;;4943489;28;20028;-92
2023/04/28 02:15:57;;;;;;;5.40;3.20;;;12.40;79.20;;;;;;4942157;28;20027;-95
2023/04/28 02:18:35;;;;;;;8.18;3.40;;;12.40;79.20;;;;;;4941212;29;20079;-96
2023/04/28 02:21:19;;;;;;;7.72;3.28;;;12.40;79.20;;;;;;4958078;28;20027;-96
2023/04/28 02:23:57;;;;;;;11.27;3.70;;;12.40;79.20;;;;;;4942089;29;20469;-95
2023/04/28 02:26:40;;;;;;;8.80;3.00;;;12.40;79.30;;;;;;4935474;29;20024;-94
2023/04/28 02:29:06;;;;;;;7.47;3.35;;;12.60;79.50;;;;;;4958220;28;20024;-95
2023/04/28 02:31:45;;;;;;;6.57;3.85;;;12.40;79.30;;;;;;4944583;29;20042;-96
2023/04/28 02:34:37;;;;;;;8.05;3.63;;;12.50;79.40;;;;;;4948432;29;20024;-95
2023/04/28 02:37:06;;;;;;;8.45;3.67;;;13.10;79.90;;;;;;4946607;29;20035;-96
2023/04/28 02:39:45;;;;;;;;;;;;;;;;;;;;;
2023/04/28 02:42:14;;;;;;;10.98;3.78;;;12.40;79.50;;;;;;4939473;29;20016;-94
2023/04/28 02:44:40;;;;;;;10.15;3.67;;;12.40;79.50;;;;;;4943213;29;20039;-96
2023/04/28 02:47:11;;;;;;;7.57;3.63;;;12.40;79.50;;;;;;4939588;29;20079;-96
2023/04/28 02:49:57;;;;;;;6.57;3.72;;;12.40;79.50;;;;;;4944156;29;20035;-95
2023/04/28 02:52:32;;;;;;;7.20;2.95;;;12.40;79.60;;;;;;4941315;29;20027;-95
2023/04/28 02:55:45;;;;;;;6.15;3.13;;;12.40;79.60;;;;;;4943512;29;20038;-95
2023/04/28 02:58:16;;;;;;;4.70;2.95;;;12.40;79.60;;;;;;4939669;29;20031;-95
2023/04/28 03:01:00;;;;;;;5.75;3.83;;;12.40;79.70;;;;;;4941646;29;20071;-95
2023/04/28 03:03:29;;;;;;;6.07;3.67;;;12.40;79.70;;;;;;4935187;29;20051;-96
2023/04/28 03:05:57;;;;;;;6.20;4.07;;;12.40;79.70;;;;;;4945401;29;20028;-96
2023/04/28 03:08:22;;;;;;;11.00;3.60;;;12.40;79.70;;;;;;4928172;29;20043;-96
2023/04/28 03:11:04;;;;;;;7.30;3.63;;;11.80;79.30;;;;;;4942368;29;20106;-94
2023/04/28 03:13:34;;;;;;;6.18;3.80;;;12.40;79.70;;;;;;4942067;29;20038;-96
2023/04/28 03:16:08;;;;;;;7.40;4.13;;;12.40;79.80;;;;;;4916538;29;20577;-95
2023/04/28 03:18:42;;;;;;;10.45;3.42;;;12.40;79.80;;;;;;4944142;29;20487;-95
2023/04/28 03:21:11;;;;;;;5.68;3.20;;;12.40;79.90;;;;;;4947538;29;20507;-95
2023/04/28 03:23:42;;;;;;;7.95;3.45;;;12.40;79.80;;;;;;4944052;29;20028;-95
2023/04/28 03:26:20;;;;;;;7.13;3.72;;;12.50;80.00;;;;;;4944927;29;20169;-94
2023/04/28 03:28:59;;;;;;;15.48;4.00;;;12.40;79.90;;;;;;4945383;28;20042;-95
2023/04/28 03:31:24;;;;;;;5.60;3.55;;;12.40;79.90;;;;;;4944678;29;20031;-95
2023/04/28 03:33:58;;;;;;;8.40;4.28;;;12.40;79.90;;;;;;4938571;28;20035;-95
2023/04/28 03:36:27;;;;;;;8.23;3.47;;;12.40;79.90;;;;;;4941242;29;20051;-94
2023/04/28 03:39:23;;;;;;;5.03;3.65;;;12.40;80.00;;;;;;4939965;29;20031;-94
2023/04/28 03:41:54;;;;;;;7.20;3.65;;;12.40;80.00;;;;;;4922351;29;20095;-95
2023/04/28 03:44:28;;;;;;;6.68;3.75;;;12.40;80.10;;;;;;4945303;29;20055;-95
2023/04/28 03:47:04;;;;;;;12.52;4.57;;;12.40;80.00;;;;;;4950109;29;20020;-95
2023/04/28 03:49:30;;;;;;;6.65;3.78;;;12.40;80.10;;;;;;4938194;29;20023;-95
2023/04/28 03:51:59;;;;;;;9.60;3.35;;;12.40;80.10;;;;;;4926155;29;20130;-95
2023/04/28 03:54:33;;;;;;;6.60;3.60;;;12.40;80.10;;;;;;4946414;29;20027;-96
2023/04/28 03:56:59;;;;;;;5.38;3.90;;;12.50;80.20;;;;;;4955389;28;20024;-96
2023/04/28 03:59:25;;;;;;;9.57;3.47;;;12.90;80.50;;;;;;4941333;29;20074;-94
2023/04/28 04:01:54;;;;;;;6.65;3.60;;;12.40;80.20;;;;;;4941548;29;20038;-95
2023/04/28 04:04:22;;;;;;;12.20;3.95;;;12.40;80.20;;;;;;4961489;28;20034;-94
2023/04/28 04:06:51;;;;;;;6.68;3.47;;;12.40;80.30;;;;;;4940675;29;20023;-94
2023/04/28 04:09:16;;;;;;;4.13;3.30;;;12.90;80.60;;;;;;4947668;29;20027;-94
2023/04/28 04:11:42;;;;;;;9.68;4.53;;;12.40;80.30;;;;;;4939674;29;20399;-94
2023/04/28 04:14:20;;;;;;;6.88;3.53;;;12.40;80.30;;;;;;4927798;29;20050;-95
2023/04/28 04:17:00;;;;;;;10.45;3.85;;;12.30;80.30;;;;;;4942428;29;20047;-95
2023/04/28 04:19:26;;;;;;;8.02;4.20;;;12.40;80.40;;;;;;4937288;29;20028;-94
2023/04/28 04:21:52;;;;;;;10.93;4.30;;;12.40;80.50;;;;;;4935497;29;20098;-95
2023/04/28 04:24:20;;;;;;;7.43;3.85;;;13.30;81.10;;;;;;4936572;29;20110;-95
2023/04/28 04:26:48;;;;;;;9.50;4.93;;;12.40;80.40;;;;;;4934840;29;20027;-95
2023/04/28 04:29:23;;;;;;;8.95;4.32;;;12.40;80.50;;;;;;4936872;29;20034;-94
2023/04/28 04:31:48;;;;;;;6.97;4.45;;;12.40;80.50;;;;;;4945094;29;20054;-94
2023/04/28 04:34:22;;;;;;;8.43;4.32;;;12.40;80.50;;;;;;4941098;29;20111;-94
2023/04/28 04:36:48;;;;;;;9.90;4.57;;;12.40;80.60;;;;;;4940015;29;20032;-94
2023/04/28 04:39:16;;;;;;;9.43;4.55;;;12.40;80.60;;;;;;4941798;28;20020;-94
2023/04/28 04:41:42;;;;;;;7.80;4.55;;;12.40;80.60;;;;;;4944288;29;20521;-94
2023/04/28 04:44:08;;;;;;;8.38;4.25;;;13.00;81.00;;;;;;4941461;29;20027;-94
2023/04/28 04:46:33;;;;;;;6.95;4.32;;;12.40;80.60;;;;;;4946404;29;20027;-94
2023/04/28 04:48:59;;;;;;;6.75;4.07;;;13.60;81.40;;;;;;4943805;29;20031;-94
2023/04/28 04:51:25;;;;;;;6.88;4.10;;;12.40;80.70;;;;;;4945227;29;20025;-93
2023/04/28 04:53:50;;;;;;;13.10;4.35;;;12.00;80.50;;;;;;4959823;28;20119;-94
2023/04/28 04:56:19;;;;;;;10.90;4.25;;;12.40;80.80;;;;;;4939058;29;20135;-95
2023/04/28 04:58:44;;;;;;;8.15;4.72;;;12.40;80.80;;;;;;4945646;29;20027;-95
2023/04/28 05:01:10;;;;;;;7.70;3.65;;;12.40;80.80;;;;;;4943840;29;20591;-94
2023/04/28 05:03:38;;;;;;;7.57;3.97;;;12.40;80.80;;;;;;4939749;29;20028;-94
2023/04/28 05:06:06;;;;;;;7.65;4.50;;;12.30;80.80;;;;;;4944708;29;20043;-94
2023/04/28 05:08:32;;;;;;;8.60;4.32;;;12.40;80.90;;;;;;4939424;29;20473;-94
2023/04/28 05:10:58;;;;;;;7.13;3.90;;;12.40;80.90;;;;;;4942030;29;20055;-94
2023/04/28 05:13:26;;;;;;;8.73;4.35;;;12.40;80.90;;;;;;4940349;29;20023;-93
2023/04/28 05:15:51;;;;;;;8.57;4.15;;;12.40;80.90;;;;;;4946980;29;20038;-94
2023/04/28 05:18:17;;;;;;;7.57;4.10;;;12.40;80.90;;;;;;4939806;29;20015;-95
2023/04/28 05:20:43;;;;;;;5.97;4.00;;;12.40;80.90;;;;;;4940966;29;20153;-95
2023/04/28 05:23:09;;;;;;;9.80;5.28;;;12.40;80.90;;;;;;4949639;28;20466;-92
2023/04/28 05:25:40;;;;;;;15.20;4.60;;;12.40;80.40;;;;;;4950673;28;20036;-94
2023/04/28 05:28:13;;;;;;;12.50;3.97;;;12.40;81.00;;;;;;4959693;28;20094;-96
2023/04/28 05:30:42;;;;;;;7.22;4.10;;;12.80;81.30;;;;;;4947189;29;20106;-95
2023/04/28 05:33:51;;;;;;;8.10;4.53;;;12.40;81.10;;;;;;4946601;29;20091;-96
2023/04/28 05:36:23;;;;;;;15.18;5.35;;;12.40;81.10;;;;;;4953859;28;20039;-96
2023/04/28 05:42:39;;;;;;;;;;;;;;;;;;;;;
2023/04/28 05:45:15;;;;;;;14.35;4.80;;;12.40;81.20;;;;;;4906337;29;20028;-96
2023/04/28 05:54:13;;;;;;;7.50;4.38;;;12.40;81.30;;;;;;4934199;29;20028;-96
2023/04/28 06:06:03;;;;;;;;;;;;;;;;;;;;;
2023/04/28 06:29:26;;;;;;;8.00;4.95;;;12.40;81.60;;;;;;4881344;29;20037;-96
2023/04/28 06:32:07;;;;;;;6.13;4.10;;;12.40;81.70;;;;;;4864048;29;20041;-95
2023/04/28 06:34:39;;;;;;;;;;;12.30;81.60;;;;;;4877451;29;20119;-95
2023/04/28 06:37:07;;;;;;;11.48;4.47;;;12.40;81.70;;;;;;4879485;29;19914;-96
2023/04/28 06:39:33;;;;;;;19.38;4.25;;;12.40;81.70;;;;;;4875729;29;20066;-96
2023/04/28 06:42:07;;;;;;;3.90;2.65;;;12.40;81.80;;;;;;4879545;29;20140;-95
2023/04/28 06:44:33;;;;;;;4.57;3.03;;;12.30;81.80;;;;;;4848318;29;20395;-95
2023/04/28 06:47:09;;;;;;;7.95;3.13;;;12.40;81.80;;;;;;4879708;29;20041;-94
2023/04/28 06:49:34;;;;;;;9.15;3.40;;;12.90;82.10;;;;;;4867656;29;20129;-95
2023/04/28 06:52:03;;;;;;;3.58;2.78;;;12.40;81.80;;;;;;4884337;29;20060;-96
2023/04/28 06:54:31;;;;;;;6.97;3.00;;;12.40;81.80;;;;;;4906927;29;20070;-95
2023/04/28 06:56:57;;;;;;;4.32;2.70;;;12.40;81.80;;;;;;4958146;28;20035;-93
2023/04/28 06:59:22;;;;;;;5.25;3.17;;;12.40;81.90;;;;;;4948127;28;20023;-95
2023/04/28 07:01:51;;;;;;;6.82;3.17;;;12.40;82.00;;;;;;4949702;28;20082;-95
2023/04/28 07:04:17;;;;;;;4.13;2.65;;;12.40;82.00;;;;;;4963630;28;20023;-95
2023/04/28 07:06:42;;;;;;;4.05;2.83;;;12.40;82.00;;;;;;4943589;28;20028;-94
2023/04/28 07:09:18;;;;;;;5.22;2.75;;;12.40;82.10;;;;;;4952811;28;20066;-95
2023/04/28 07:11:47;;;;;;;3.35;2.13;;;12.40;82.90;;;;;;4959798;28;20025;-95
2023/04/28 07:14:13;;;;;;;4.57;2.58;;;12.40;82.20;;;;;;4951816;29;20019;-94
2023/04/28 07:16:41;;;;;;;3.78;2.63;;;12.40;82.40;;;;;;4958001;29;20034;-94
2023/04/28 07:19:07;;;;;;;3.92;2.63;;;12.50;82.40;;;;;;4966418;28;20034;-95
2023/04/28 07:21:33;;;;;;;2.38;1.70;;;12.50;82.40;;;;;;4951741;28;20027;-95
2023/04/28 07:23:59;;;;;;;2.30;1.55;;;12.50;82.40;;;;;;4952991;29;20019;-94
2023/04/28 07:26:25;;;;;;;4.38;2.72;;;13.00;82.70;;;;;;4952399;28;20090;-94
2023/04/28 07:29:01;;;;;;;4.30;2.38;;;12.20;82.20;;;;;;4958705;28;20035;-95
2023/04/28 07:31:32;;;;;;;4.00;2.15;;;12.40;82.40;;;;;;4959426;28;20023;-96
2023/04/28 07:34:07;;;;;;;2.83;2.40;;;12.40;82.40;;;;;;4955064;29;20060;-95
2023/04/28 07:36:49;;;;;;;2.78;2.28;;;13.40;83.10;;;;;;4953857;29;20047;-96
2023/04/28 07:39:29;;;;;;;5.85;2.22;;;12.50;82.50;;;;;;4958799;28;20035;-96
2023/04/28 07:42:15;;;;;;;3.50;2.30;;;12.40;82.60;;;;;;4962786;28;20033;-95
2023/04/28 07:44:51;;;;;;;4.40;2.00;;;13.50;83.40;;;;;;4945030;29;20035;-95
2023/04/28 07:47:17;;;;;;;2.95;2.28;;;11.70;82.20;;;;;;4954186;28;20023;-96
2023/04/28 07:50:06;;;;;;;3.17;1.45;;;12.50;82.70;;;;;;4961439;28;20031;-94
2023/04/28 07:52:52;;;;;;;4.75;1.98;;;12.50;82.80;;;;;;4957254;28;20031;-96
2023/04/28 07:55:31;;;;;;;4.30;2.22;;;12.50;82.90;;;;;;4945738;29;20036;-94
2023/04/28 07:59:01;;;;;;;2.67;1.88;;;12.20;82.70;;;;;;4928411;29;20027;-96
2023/04/28 08:04:33;;;;;;;3.30;1.95;;;12.50;83.10;;;;;;4909462;29;20033;-95
2023/04/28 08:07:13;;;;;;;4.70;2.50;;;12.50;83.30;;;;;;4906858;29;20446;-96
2023/04/28 08:10:44;;;;;;;;;;;;;;;;;;;;;
2023/04/28 08:13:40;;;;;;;3.25;2.15;;;12.50;83.30;;;;;;4901305;29;20060;-96
2023/04/28 08:19:18;;;;;;;2.40;1.77;;;12.50;83.40;;;;;;4870818;29;20029;-95
2023/04/28 08:21:44;;;;;;;2.28;1.80;;;12.50;83.60;;;;;;4851141;29;20038;-93
2023/04/28 08:24:20;;;;;;;7.75;2.45;;;12.50;83.50;;;;;;4865164;29;20033;-96
2023/04/28 08:27:11;;;;;;;1.73;1.60;;;12.60;83.50;;;;;;4863626;29;20040;-94
2023/04/28 08:30:00;;;;;;;2.88;2.20;;;12.50;83.60;;;;;;4871237;29;20116;-93
2023/04/28 08:33:22;;;;;;;;;;;;;;;;;;;;;
2023/04/28 08:39:10;;;;;;;2.13;1.52;;;12.50;83.90;;;;;;4862338;29;20456;-96
2023/04/28 08:45:00;;;;;;;1.40;1.30;;;12.50;84.00;;;;;;4842434;29;20049;-94
2023/04/28 08:47:44;;;;;;;1.52;1.42;;;12.50;84.10;;;;;;4834841;29;20100;-95
2023/04/28 08:50:58;;;;;;;1.75;1.02;;;12.60;84.50;;;;;;4842516;29;20042;-95
2023/04/28 08:56:50;;;;;;;0.73;0.68;;;12.60;84.40;;;;;;4868706;29;20044;-94
2023/04/28 08:59:50;;;;;;;1.95;1.27;;;12.60;84.40;;;;;;4894012;29;20112;-96
2023/04/28 09:02:28;;;;;;;3.80;1.40;;;12.60;84.40;;;;;;4865270;29;20034;-96
2023/04/28 09:08:30;;;;;;;2.80;1.33;;;12.50;84.40;;;;;;4855938;29;20074;-94
2023/04/28 09:11:10;;;;;;;2.03;1.40;;;12.50;84.50;;;;;;4840267;29;20076;-95
2023/04/28 09:13:36;;;;;;;1.90;1.65;;;12.60;84.60;;;;;;4842839;29;20040;-95
2023/04/28 09:16:03;;;;;;;2.47;1.50;;;12.60;84.60;;;;;;4843646;29;20034;-94
2023/04/28 09:18:54;;;;;;;3.30;2.38;;;12.60;84.60;;;;;;4885656;29;20044;-96
2023/04/28 09:21:22;;;;;;;2.03;1.67;;;12.70;84.80;;;;;;4893910;29;20588;-95
2023/04/28 09:23:56;;;;;;;2.78;2.08;;;12.60;84.70;;;;;;4898447;29;20115;-93
2023/04/28 09:27:09;;;;;;;2.33;2.13;;;12.60;85.00;;;;;;4878590;29;20032;-96
2023/04/28 09:29:38;;;;;;;2.25;2.00;;;12.60;84.90;;;;;;4886618;29;20442;-94
2023/04/28 09:32:27;;;;;;;2.35;1.83;;;12.60;86.50;;;;;;4881716;29;20115;-95
2023/04/28 09:35:10;;;;;;;3.57;2.17;;;12.60;85.90;;;;;;4902260;29;20036;-96
2023/04/28 10:13:24;;;;;;;3.33;1.20;;;12.70;88.90;;;;;;6177581;23;20086;-96
2023/04/28 10:19:33;;;;;;;1.42;1.02;;;12.70;88.80;;;;;;6143285;23;20021;-94
2023/04/28 10:32:49;;;;;;;2.25;1.00;;;12.80;90.50;;;;;;6056436;23;20555;-96
2023/04/28 10:51:38;;;;;;;0.70;0.70;;;12.90;92.00;;;;;;6197397;23;20019;-96
2023/04/28 11:18:58;;;;;;;0.50;0.50;;;13.00;92.40;;;;;;6135800;23;20065;-96
2023/04/28 12:38:51;;;;;;;5.03;1.50;;;13.30;93.30;;;;;;6219947;22;20031;-87
2023/04/28 12:41:19;;;;;;;0.98;0.88;;;13.30;94.50;;;;;;6183131;23;20008;-87
2023/04/28 12:43:48;;;;;;;1.33;1.23;;;13.40;94.90;;;;;;6211319;23;20004;-87
2023/04/28 12:46:14;;;;;;;3.40;1.80;;;13.40;95.30;;;;;;6186314;23;20005;-87
2023/04/28 12:48:40;;;;;;;1.73;1.63;;;13.50;95.40;;;;;;6212301;23;20016;-88
2023/04/28 12:51:22;;;;;;;2.42;1.98;;;13.60;96.40;;;;;;6182770;23;20327;-88
2023/04/28 12:53:47;;;;;;;7.72;3.13;;;13.50;96.10;;;;;;6211780;23;19993;-86
2023/04/28 12:56:13;;;;;;;1.95;1.73;;;13.50;96.50;;;;;;6210925;23;20012;-87
2023/04/28 12:58:38;;;;;;;2.25;1.90;;;13.50;96.10;;;;;;6185832;23;20013;-88
2023/04/28 13:01:04;;;;;;;1.30;1.23;;;13.60;97.10;;;;;;6185718;23;20004;-88
2023/04/28 13:03:29;;;;;;;2.17;1.30;;;13.60;96.90;;;;;;6186159;23;20005;-88
2023/04/28 13:05:55;;;;;;;6.15;1.50;;;13.50;97.00;;;;;;6186334;23;20349;-86
2023/04/28 13:08:21;;;;;;;1.58;1.45;;;13.60;97.00;;;;;;6187407;23;20004;-88
2023/04/28 13:10:46;;;;;;;2.03;1.50;;;13.70;97.10;;;;;;6184804;23;20009;-86
2023/04/28 13:13:15;;;;;;;1.88;1.15;;;13.60;97.80;;;;;;6184584;23;20020;-88
2023/04/28 13:15:45;;;;;;;1.55;1.42;;;13.60;97.30;;;;;;6185872;23;20004;-89
2023/04/28 13:18:11;;;;;;;2.13;1.50;;;14.80;97.80;;;;;;6211345;23;20001;-87
2023/04/28 13:20:36;;;;;;;3.38;1.20;;;13.90;97.80;;;;;;6185126;23;20030;-89
2023/04/28 13:23:08;;;;;;;4.93;1.70;;;13.60;98.00;;;;;;6210894;23;20477;-87
2023/04/28 13:25:37;;;;;;;2.22;1.40;;;13.70;97.80;;;;;;6185677;23;20004;-85
2023/04/28 13:28:08;;;;;;;2.17;1.85;;;13.70;98.10;;;;;;6186446;23;20005;-88
2023/04/28 13:31:30;;;;;;;2.53;2.00;;;13.50;98.50;;;;;;6187929;23;20419;-96
2023/04/28 13:41:45;;;;;;;2.25;1.75;;;13.60;98.40;;;;;;6231972;22;19915;-93
2023/04/28 13:44:14;;;;;;;2.33;1.95;;;13.60;98.90;;;;;;6216795;23;20012;-93
2023/04/28 13:46:43;;;;;;;2.53;2.08;;;13.60;99.30;;;;;;6217633;23;20452;-94
2023/04/28 13:49:13;;;;;;;2.10;1.90;;;13.60;99.40;;;;;;6216019;23;20022;-93
2023/04/28 13:55:09;;;;;;;1.15;1.05;;;13.70;99.90;;;;;;6160104;23;20032;-96
2023/04/28 13:57:41;;;;;;;2.15;1.70;;;13.60;99.60;;;;;;6211164;23;20008;-88
2023/04/28 14:00:07;;;;;;;2.83;2.00;;;13.80;99.90;;;;;;6217653;23;20495;-88
2023/04/28 14:02:33;;;;;;;2.08;1.35;;;13.70;99.90;;;;;;6216834;23;20037;-87
2023/04/28 14:04:58;;;;;;;1.67;1.45;;;13.70;99.90;;;;;;6216933;23;20050;-88
2023/04/28 14:07:24;;;;;;;1.60;1.50;;;13.70;99.90;;;;;;6216112;23;20007;-88
2023/04/28 14:09:50;;;;;;;3.95;1.60;;;13.80;99.90;;;;;;6217505;23;19997;-88
2023/04/28 14:12:15;;;;;;;2.17;1.80;;;13.80;99.90;;;;;;6216867;23;20000;-89
2023/04/28 14:14:41;;;;;;;1.30;0.93;;;13.80;99.90;;;;;;6216611;23;20004;-87
2023/04/28 14:17:08;;;;;;;2.50;1.85;;;13.80;99.90;;;;;;6243808;23;20012;-88
2023/04/28 14:19:37;;;;;;;2.35;1.95;;;13.80;99.90;;;;;;6218040;23;20000;-88
2023/04/28 14:22:03;;;;;;;7.03;1.75;;;13.80;99.90;;;;;;6216494;23;20027;-88
2023/04/28 14:24:28;;;;;;;6.88;2.28;;;14.20;99.90;;;;;;6205359;23;20011;-88
2023/04/28 14:27:03;;;;;;;2.25;2.05;;;13.90;99.90;;;;;;6212506;23;20381;-88
2023/04/28 14:29:29;;;;;;;2.95;1.58;;;13.80;99.90;;;;;;6211914;23;20008;-88
2023/04/28 14:31:54;;;;;;;6.15;2.40;;;13.90;99.90;;;;;;6211385;23;20046;-89
2023/04/28 14:34:20;;;;;;;3.70;2.25;;;13.90;99.90;;;;;;6212305;23;20070;-89
2023/04/28 14:36:47;;;;;;;3.58;2.88;;;13.90;99.90;;;;;;6211687;23;20015;-88
2023/04/28 14:39:13;;;;;;;5.03;2.15;;;14.00;99.90;;;;;;6237612;23;20000;-88
2023/04/28 14:41:38;;;;;;;2.42;1.88;;;13.90;99.90;;;;;;6209216;23;20066;-89
2023/04/28 14:44:05;;;;;;;4.20;2.83;;;13.90;99.90;;;;;;6210494;23;20011;-88
2023/04/28 14:46:31;;;;;;;1.33;1.23;;;13.80;99.90;;;;;;6209873;23;20008;-86
2023/04/28 14:48:57;;;;;;;3.42;2.33;;;13.90;99.90;;;;;;6236853;23;20035;-89
2023/04/28 14:51:23;;;;;;;3.25;2.72;;;13.90;99.90;;;;;;6207687;23;20011;-87
2023/04/28 14:53:49;;;;;;;3.97;2.55;;;13.60;99.90;;;;;;6208864;23;20012;-88
2023/04/28 14:56:15;;;;;;;3.50;1.90;;;13.90;99.90;;;;;;6209367;23;20012;-89
2023/04/28 14:58:41;;;;;;;1.42;1.35;;;13.90;99.90;;;;;;6209613;23;20011;-88
2023/04/28 15:01:08;;;;;;;2.95;2.22;;;13.80;99.90;;;;;;6211793;23;20055;-89
2023/04/28 15:03:33;;;;;;;3.80;2.33;;;13.80;99.90;;;;;;6210590;23;20008;-88
2023/04/28 15:05:59;;;;;;;3.13;1.83;;;13.80;99.90;;;;;;6236432;23;20012;-88
2023/04/28 15:08:25;;;;;;;3.00;2.20;;;13.80;99.90;;;;;;6210185;23;20008;-88
2023/04/28 15:10:53;;;;;;;2.65;2.10;;;13.80;99.90;;;;;;6210110;23;20437;-88
2023/04/28 15:13:18;;;;;;;4.10;2.53;;;13.80;99.90;;;;;;6208410;23;20650;-88
2023/04/28 15:15:44;;;;;;;3.38;2.17;;;13.90;99.90;;;;;;6234105;23;20344;-89
2023/04/28 15:18:09;;;;;;;2.15;1.90;;;13.80;99.90;;;;;;6208026;23;20008;-90
2023/04/28 15:20:37;;;;;;;8.40;2.33;;;14.90;99.90;;;;;;6208137;23;20322;-86
2023/04/28 15:23:02;;;;;;;3.65;2.55;;;13.80;99.90;;;;;;6207588;23;20000;-88
2023/04/28 15:25:28;;;;;;;3.65;2.60;;;13.80;99.90;;;;;;6233215;23;20745;-89
2023/04/28 15:27:54;;;;;;;4.30;2.75;;;13.80;99.90;;;;;;6207682;23;20012;-88
2023/04/28 15:30:20;;;;;;;3.88;2.90;;;13.70;99.90;;;;;;6208787;23;20004;-87
2023/04/28 15:32:48;;;;;;;4.28;2.70;;;14.30;99.90;;;;;;6209844;23;20087;-89
2023/04/28 15:35:13;;;;;;;4.25;2.92;;;13.70;99.90;;;;;;6209228;23;20435;-89
2023/04/28 15:37:41;;;;;;;3.20;2.40;;;13.70;99.90;;;;;;6207838;23;20012;-88
2023/04/28 15:40:09;;;;;;;3.20;2.67;;;13.70;99.90;;;;;;6208210;23;20004;-89
2023/04/28 15:42:36;;;;;;;6.53;2.80;;;13.70;99.90;;;;;;6211313;23;20043;-88
2023/04/28 15:45:02;;;;;;;3.50;2.60;;;14.30;99.90;;;;;;6210173;23;20015;-88
2023/04/28 15:47:29;;;;;;;3.97;2.90;;;13.70;99.90;;;;;;6236907;23;20095;-89
2023/04/28 15:49:59;;;;;;;4.30;2.60;;;13.80;99.90;;;;;;6209861;23;20012;-89
2023/04/28 15:52:25;;;;;;;6.07;2.77;;;13.70;99.90;;;;;;6209863;23;20495;-88
2023/04/28 15:54:51;;;;;;;5.45;2.55;;;13.70;99.90;;;;;;6230907;23;20364;-88
2023/04/28 15:57:17;;;;;;;4.45;2.90;;;13.70;99.90;;;;;;6208401;23;20094;-89
2023/04/28 15:59:42;;;;;;;5.45;2.67;;;13.80;99.90;;;;;;6210008;23;20008;-88
2023/04/28 16:02:08;;;;;;;4.50;2.70;;;13.80;99.90;;;;;;6210772;23;20035;-88
2023/04/28 16:04:33;;;;;;;5.43;2.72;;;13.70;99.90;;;;;;6209729;23;20003;-89
2023/04/28 16:07:01;;;;;;;2.72;2.15;;;13.70;99.90;;;;;;6209036;23;20047;-89
2023/04/28 16:09:30;;;;;;;3.67;2.25;;;13.70;99.90;;;;;;6209197;23;20008;-89
2023/04/28 16:11:58;;;;;;;2.42;1.90;;;13.70;99.90;;;;;;6209137;23;20011;-88
2023/04/28 16:14:27;;;;;;;1.80;1.55;;;13.60;99.90;;;;;;6209291;23;20008;-88
2023/04/28 16:16:52;;;;;;;3.28;1.92;;;13.50;99.90;;;;;;6207756;23;20384;-87
2023/04/28 16:19:18;;;;;;;5.78;2.90;;;13.70;99.90;;;;;;6234841;23;20007;-88
2023/04/28 16:21:44;;;;;;;3.70;2.70;;;13.60;99.90;;;;;;6208692;23;20060;-89
2023/04/28 16:24:10;;;;;;;3.90;2.20;;;13.60;99.90;;;;;;6208705;23;20085;-88
2023/04/28 16:26:35;;;;;;;3.83;1.83;;;13.60;99.90;;;;;;6207935;23;20004;-88
2023/04/28 16:29:01;;;;;;;3.33;1.92;;;13.60;99.90;;;;;;6206812;23;20015;-88
2023/04/28 16:31:27;;;;;;;1.65;1.42;;;13.30;99.90;;;;;;6207692;23;20011;-88
2023/04/28 16:33:52;;;;;;;4.20;1.95;;;13.60;99.90;;;;;;6208115;23;20011;-88
2023/04/28 16:36:18;;;;;;;4.82;2.22;;;13.60;99.90;;;;;;6234239;23;20333;-87
2023/04/28 16:38:47;;;;;;;3.45;1.98;;;13.60;99.90;;;;;;6208385;23;20004;-88
2023/04/28 16:41:13;;;;;;;4.50;1.97;;;13.60;99.90;;;;;;6207607;23;20466;-88
2023/04/28 16:43:38;;;;;;;3.28;1.63;;;13.50;99.90;;;;;;6207689;23;20227;-87
2023/04/28 16:46:04;;;;;;;1.25;0.95;;;13.60;99.90;;;;;;6207417;23;20007;-88
2023/04/28 16:48:33;;;;;;;1.33;0.90;;;13.50;99.90;;;;;;6207923;23;20027;-94
2023/04/28 16:50:59;;;;;;;1.77;1.02;;;13.50;99.90;;;;;;6157554;23;20012;-94
2023/04/28 16:53:28;;;;;;;1.70;1.25;;;13.60;99.90;;;;;;6183310;23;20012;-93
2023/04/28 16:55:54;;;;;;;2.13;1.10;;;13.60;99.90;;;;;;6205799;23;20050;-94
2023/04/28 16:58:23;;;;;;;2.10;1.30;;;13.50;99.90;;;;;;6155511;23;20420;-93
2023/04/28 17:00:49;;;;;;;1.67;1.37;;;13.50;99.90;;;;;;6181950;23;20445;-94
2023/04/28 17:03:15;;;;;;;3.63;1.55;;;13.50;99.90;;;;;;6204559;23;20087;-95
2023/04/28 17:06:01;;;;;;;1.17;1.08;;;13.50;99.90;;;;;;6185980;23;20449;-95
2023/04/28 17:08:28;;;;;;;4.13;1.67;;;13.50;99.90;;;;;;6222518;23;20008;-93
2023/04/28 17:10:58;;;;;;;8.65;2.65;;;13.50;99.90;;;;;;6214433;23;20011;-94
2023/04/28 17:13:24;;;;;;;1.43;0.97;;;13.50;99.90;;;;;;6158355;23;20430;-94
2023/04/28 17:15:54;;;;;;;1.83;1.02;;;13.50;99.90;;;;;;6184166;23;20301;-94
2023/04/28 17:18:20;;;;;;;;;;;13.50;99.90;;;;;;6187218;23;20015;-94
2023/04/28 17:21:10;;;;;;;1.58;1.30;;;13.50;99.90;;;;;;6216068;23;19899;-94
2023/04/28 17:23:37;;;;;;;6.38;1.33;;;13.50;99.90;;;;;;6213366;23;20333;-94
2023/04/28 17:26:05;;;;;;;4.40;1.55;;;13.50;99.90;;;;;;6191278;23;20036;-93
2023/04/28 17:28:42;;;;;;;2.90;2.15;;;13.50;99.90;;;;;;6192677;23;20004;-94